Historyczne dane pomiarowe

Dodano dane terminowe – wersja testowa.

Dane z okresu 1951-2019

Wersja bazy: 1.34 [2019-03-16, lista zmian], aktualizacja planowana na 2019-04-15

Dane meteo z obszaru Polski uzyskane na podstawie danych udostępnionych przez Instytut Meteorologii i Gospodarki Wodnej – Państwowy Instytut Badawczy.

 

Wybierz Datę:    

       

TemperaturaWilgotnośćWiatrCiśnienieOpadyŚniegCzas trwania zjawisk
 Stacja t tx tn tng RH VA  wxwx mslp ppp RRR   cm mm wxwxwxwxwxwxwx
1994-08-14 15.8 20.6 13.0 11.8-------- 0.0--- 0.0 9.2-------
1994-08-13 18.9 24.0 15.1 14.1-------- 1.7--- 0.0 5.5-------
1994-08-12 17.6 20.7 14.2 13.0-------- 1.0--- 0.0 0.8-------
1994-08-11 19.3 23.3 16.6 14.8-------- 2.9--- 0.0 0.7-------
1994-08-10 20.8 27.4 14.2 11.7-------- 0.0--- 0.0 11.6-------
1994-08-09 19.8 23.9 16.9 15.6-------- 44.9--- 0.0 1.7-------
1994-08-08 22.5 29.5 17.2 15.0-------- 1.2--- 0.0 2.6-------
1994-08-07 23.0 32.4 17.3 14.7-------- 0.1--- 0.0 6.2-------
1994-08-06 24.1 33.4 13.3 9.8-------- 0.2--- 0.0 12.9-------
1994-08-05 23.4 31.0 15.7 13.4-------- 0.0--- 0.0 11.9-------
1994-08-04 24.0 30.8 17.8 15.4-------- 0.0--- 0.0 9.5-------
1994-08-03 25.0 32.0 18.0 16.0-------- 0.1--- 0.0 11.5-------
1994-08-02 26.1 34.6 16.4 14.0-------- 1.7--- 0.0 10.8-------
1994-08-01 26.3 35.8 16.5 13.5-------- 0.0--- 0.0 12.1-------
1994-07-31 26.3 34.5 16.6 16.2-------- 0.0--- 0.0 12.8-------
1994-07-30 25.0 34.5 14.7 11.3-------- 0.0--- 0.0 13.0-------
1994-07-29 24.4 34.0 13.3 10.3-------- 0.0--- 0.0 13.0-------
1994-07-28 24.6 33.3 15.1 11.8-------- 0.0--- 0.0 13.0-------
1994-07-27 23.9 33.6 13.3 11.0-------- 0.0--- 0.0 12.0-------
1994-07-26 25.3 33.0 14.8 12.7-------- 0.0--- 0.0 13.8-------
1994-07-25 23.3 32.1 13.2 10.8-------- 0.0--- 0.0 12.8-------
1994-07-24 22.1 30.4 12.4 9.3-------- 0.0--- 0.0 11.4-------
1994-07-23 20.7 29.0 11.4 8.2-------- 0.0--- 0.0 12.6-------
1994-07-22 20.3 28.8 10.5 7.6-------- 0.0--- 0.0 14.0-------
1994-07-21 19.2 26.7 9.6 6.5-------- 0.0--- 0.0 13.8-------
1994-07-20 19.0 24.7 11.4 9.6-------- 0.0--- 0.0 13.5-------
1994-07-19 20.4 25.1 15.8 14.5-------- 0.0--- 0.0 6.1-------
1994-07-18 20.5 27.9 17.4 16.5-------- 25.2--- 0.0 6.0-------
1994-07-17 22.7 30.1 16.4 12.8-------- 3.6--- 0.0 7.1-------
1994-07-16 24.0 31.3 14.5 11.2-------- 0.0--- 0.0 11.5-------
1994-07-15 22.3 28.8 13.7 10.3-------- 0.0--- 0.0 12.5-------
1994-07-14 21.4 30.0 13.9 10.6-------- 0.0--- 0.0 9.7-------
1994-07-13 22.1 28.5 12.9 9.3-------- 0.0--- 0.0 10.3-------
1994-07-12 20.7 28.0 14.4 11.4-------- 0.0--- 0.0 10.8-------
1994-07-11 18.0 25.0 10.9 8.3-------- 0.2--- 0.0 6.9-------
1994-07-10 16.2 22.2 12.5 11.4-------- 0.2--- 0.0 3.8-------
1994-07-09 15.7 19.1 11.9 9.8-------- 7.3--- 0.0 2.5-------
1994-07-08 18.3 23.0 15.3 15.0-------- 0.0--- 0.0 6.4-------
1994-07-07 19.4 27.1 10.3 6.6-------- 3.0--- 0.0 7.9-------
1994-07-06 20.3 25.6 13.2 8.0-------- 0.0--- 0.0 12.3-------
1994-07-05 22.1 28.9 12.0 8.5-------- 0.2--- 0.0 10.1-------
1994-07-04 20.5 28.8 9.8 5.6-------- 0.0--- 0.0 13.9-------
1994-07-03 19.8 26.9 8.8 4.6-------- 0.0--- 0.0 14.4-------
1994-07-02 18.1 25.2 9.9 5.7-------- 0.0--- 0.0 14.4-------
1994-07-01 20.2 24.8 15.4 11.8-------- 0.0--- 0.0 12.3-------
1994-06-30 23.0 28.0 17.7 14.7-------- 1.5--- 0.0 6.3-------
1994-06-29 25.2 31.5 15.9 12.5-------- 0.0--- 0.0 13.2-------
1994-06-28 25.3 30.4 17.7 14.7-------- 0.0--- 0.0 13.5-------
1994-06-27 25.7 32.2 17.2 13.4-------- 0.0--- 0.0 12.7-------
1994-06-26 22.0 29.8 10.6 5.3-------- 0.0--- 0.0 14.2-------
1994-06-25 16.0 23.1 5.1 0.8-------- 0.0--- 0.0 14.3-------
1994-06-24 15.0 21.0 7.4 2.7-------- 0.0--- 0.0 14.7-------
1994-06-23 18.5 24.1 16.5 16.0-------- 0.0--- 0.0 10.5-------
1994-06-22 19.2 27.4 8.3 4.9-------- 0.5--- 0.0 12.4-------
1994-06-21 15.6 21.3 7.0 3.5-------- 0.0--- 0.0 14.5-------
1994-06-20 17.2 22.4 11.4 7.7-------- 0.0--- 0.0 9.1-------
1994-06-19 18.0 24.7 11.4 10.8-------- 0.0--- 0.0 3.7-------
1994-06-18 12.4 20.5 3.6 0.2-------- 8.7--- 0.0 7.8-------
1994-06-17 12.2 15.7 9.7 8.8-------- 3.4--- 0.0 7.2-------
1994-06-16 13.3 18.1 7.3 2.9-------- 5.4--- 0.0 4.1-------
197.6 ms

 

Źródłem pochodzenia danych jest Instytut Meteorologii i Gospodarki Wodnej – Państwowy Instytut Badawczy. Dane Instytutu Meteorologii i Gospodarki Wodnej – Państwowego Instytutu Badawczego zostały przetworzone.

Dane źródłowe można odnaleźć na stronie https://dane.imgw.pl